sensor_id;sensor_type;location;lat;lon;timestamp;pressure;altitude;pressure_sealevel;temperature;humidity
29383;BME280;16365;51.598;7.668;2023-03-01T00:00:04;102396.66;;;5.24;39.85
29383;BME280;16365;51.598;7.668;2023-03-01T00:02:31;102397.47;;;5.24;39.66
29383;BME280;16365;51.598;7.668;2023-03-01T00:04:58;102388.41;;;5.24;39.92
29383;BME280;16365;51.598;7.668;2023-03-01T00:07:24;102390.88;;;5.25;40.14
29383;BME280;16365;51.598;7.668;2023-03-01T00:09:50;102388.97;;;5.26;39.87
29383;BME280;16365;51.598;7.668;2023-03-01T00:12:17;102397.22;;;5.26;39.93
29383;BME280;16365;51.598;7.668;2023-03-01T00:14:44;102394.47;;;5.26;39.58
29383;BME280;16365;51.598;7.668;2023-03-01T00:17:11;102399.13;;;5.25;39.66
29383;BME280;16365;51.598;7.668;2023-03-01T00:19:37;102392.22;;;5.23;39.71
29383;BME280;16365;51.598;7.668;2023-03-01T00:22:04;102395.22;;;5.21;39.97
29383;BME280;16365;51.598;7.668;2023-03-01T00:24:30;102389.16;;;5.19;40.01
29383;BME280;16365;51.598;7.668;2023-03-01T00:26:56;102380.56;;;5.15;40.01
29383;BME280;16365;51.598;7.668;2023-03-01T00:29:24;102380.00;;;5.13;39.85
29383;BME280;16365;51.598;7.668;2023-03-01T00:31:51;102379.38;;;5.11;39.84
29383;BME280;16365;51.598;7.668;2023-03-01T00:34:17;102375.25;;;5.09;39.98
29383;BME280;16365;51.598;7.668;2023-03-01T00:36:44;102373.81;;;5.06;40.26
29383;BME280;16365;51.598;7.668;2023-03-01T00:39:14;102370.97;;;5.01;40.04
29383;BME280;16365;51.598;7.668;2023-03-01T00:41:41;102371.72;;;4.97;39.93
29383;BME280;16365;51.598;7.668;2023-03-01T00:44:08;102367.56;;;4.94;40.43
29383;BME280;16365;51.598;7.668;2023-03-01T00:46:35;102363.41;;;4.92;40.30
29383;BME280;16365;51.598;7.668;2023-03-01T00:49:02;102359.47;;;4.87;40.46
29383;BME280;16365;51.598;7.668;2023-03-01T00:51:31;102357.47;;;4.83;40.80
29383;BME280;16365;51.598;7.668;2023-03-01T00:54:00;102351.66;;;4.79;40.91
29383;BME280;16365;51.598;7.668;2023-03-01T00:56:28;102356.56;;;4.77;40.52
29383;BME280;16365;51.598;7.668;2023-03-01T00:58:55;102354.56;;;4.73;40.41
29383;BME280;16365;51.598;7.668;2023-03-01T01:01:24;102358.66;;;4.70;40.70
29383;BME280;16365;51.598;7.668;2023-03-01T01:03:56;102356.38;;;4.67;40.86
29383;BME280;16365;51.598;7.668;2023-03-01T01:06:25;102352.25;;;4.64;40.90
29383;BME280;16365;51.598;7.668;2023-03-01T01:08:54;102352.47;;;4.63;40.93
29383;BME280;16365;51.598;7.668;2023-03-01T01:11:22;102347.50;;;4.60;40.44
29383;BME280;16365;51.598;7.668;2023-03-01T01:13:49;102343.91;;;4.59;40.84
29383;BME280;16365;51.598;7.668;2023-03-01T01:16:20;102341.66;;;4.56;41.00
29383;BME280;16365;51.598;7.668;2023-03-01T01:18:47;102340.22;;;4.54;40.47
29383;BME280;16365;51.598;7.668;2023-03-01T01:21:16;102347.88;;;4.52;40.75
29383;BME280;16365;51.598;7.668;2023-03-01T01:23:44;102354.47;;;4.51;40.68
29383;BME280;16365;51.598;7.668;2023-03-01T01:26:14;102352.19;;;4.48;40.79
29383;BME280;16365;51.598;7.668;2023-03-01T01:28:42;102346.97;;;4.46;40.86
29383;BME280;16365;51.598;7.668;2023-03-01T01:31:08;102350.78;;;4.45;40.85
29383;BME280;16365;51.598;7.668;2023-03-01T01:33:34;102345.53;;;4.44;41.15
29383;BME280;16365;51.598;7.668;2023-03-01T01:36:01;102343.03;;;4.42;40.81
29383;BME280;16365;51.598;7.668;2023-03-01T01:38:28;102341.59;;;4.39;40.72
29383;BME280;16365;51.598;7.668;2023-03-01T01:40:54;102350.09;;;4.38;41.15
29383;BME280;16365;51.598;7.668;2023-03-01T01:43:30;102347.00;;;4.34;41.37
29383;BME280;16365;51.598;7.668;2023-03-01T01:45:59;102338.75;;;4.34;41.54
29383;BME280;16365;51.598;7.668;2023-03-01T01:48:34;102336.28;;;4.33;41.25
29383;BME280;16365;51.598;7.668;2023-03-01T01:51:10;102325.53;;;4.31;41.27
29383;BME280;16365;51.598;7.668;2023-03-01T01:53:39;102318.41;;;4.30;41.18
29383;BME280;16365;51.598;7.668;2023-03-01T01:56:06;102321.97;;;4.31;41.73
29383;BME280;16365;51.598;7.668;2023-03-01T01:58:35;102333.53;;;4.33;40.94
29383;BME280;16365;51.598;7.668;2023-03-01T02:01:03;102322.81;;;4.31;40.67
29383;BME280;16365;51.598;7.668;2023-03-01T02:03:31;102320.28;;;4.30;40.91
29383;BME280;16365;51.598;7.668;2023-03-01T02:08:37;102313.88;;;4.24;41.00
29383;BME280;16365;51.598;7.668;2023-03-01T02:11:05;102312.22;;;4.23;40.84
29383;BME280;16365;51.598;7.668;2023-03-01T02:13:32;102303.41;;;4.21;41.42
29383;BME280;16365;51.598;7.668;2023-03-01T02:16:03;102306.38;;;4.20;41.00
29383;BME280;16365;51.598;7.668;2023-03-01T02:18:30;102309.38;;;4.18;41.26
29383;BME280;16365;51.598;7.668;2023-03-01T02:24:06;102298.28;;;4.13;41.29
29383;BME280;16365;51.598;7.668;2023-03-01T02:26:42;102298.78;;;4.10;41.80
29383;BME280;16365;51.598;7.668;2023-03-01T02:29:11;102297.38;;;4.07;41.19
29383;BME280;16365;51.598;7.668;2023-03-01T02:31:38;102301.44;;;4.05;41.25
29383;BME280;16365;51.598;7.668;2023-03-01T02:34:15;102310.16;;;4.02;41.32
29383;BME280;16365;51.598;7.668;2023-03-01T02:37:06;102308.16;;;3.97;42.38
29383;BME280;16365;51.598;7.668;2023-03-01T02:39:40;102308.72;;;3.99;42.42
29383;BME280;16365;51.598;7.668;2023-03-01T02:42:11;102311.72;;;3.98;41.73
29383;BME280;16365;51.598;7.668;2023-03-01T02:44:38;102310.91;;;3.97;41.28
29383;BME280;16365;51.598;7.668;2023-03-01T02:47:05;102314.47;;;3.98;41.40
29383;BME280;16365;51.598;7.668;2023-03-01T02:49:35;102312.81;;;3.97;41.75
29383;BME280;16365;51.598;7.668;2023-03-01T02:52:16;102311.38;;;3.94;42.47
29383;BME280;16365;51.598;7.668;2023-03-01T02:54:54;102311.63;;;3.93;41.76
29383;BME280;16365;51.598;7.668;2023-03-01T02:57:23;102305.88;;;3.94;41.36
29383;BME280;16365;51.598;7.668;2023-03-01T02:59:52;102299.00;;;3.92;41.41
29383;BME280;16365;51.598;7.668;2023-03-01T03:02:24;102296.47;;;3.90;41.74
29383;BME280;16365;51.598;7.668;2023-03-01T03:05:11;102295.66;;;3.90;41.47
29383;BME280;16365;51.598;7.668;2023-03-01T03:07:41;102284.94;;;3.88;41.46
29383;BME280;16365;51.598;7.668;2023-03-01T03:10:09;102293.16;;;3.88;42.53
29383;BME280;16365;51.598;7.668;2023-03-01T03:12:37;102293.16;;;3.88;41.40
29383;BME280;16365;51.598;7.668;2023-03-01T03:15:06;102289.22;;;3.84;41.53
29383;BME280;16365;51.598;7.668;2023-03-01T03:17:36;102295.19;;;3.81;41.86
29383;BME280;16365;51.598;7.668;2023-03-01T03:20:07;102291.88;;;3.79;41.86
29383;BME280;16365;51.598;7.668;2023-03-01T03:22:40;102290.44;;;3.76;41.87
29383;BME280;16365;51.598;7.668;2023-03-01T03:25:07;102290.94;;;3.73;41.85
29383;BME280;16365;51.598;7.668;2023-03-01T03:27:38;102285.69;;;3.72;41.46
29383;BME280;16365;51.598;7.668;2023-03-01T03:30:07;102284.28;;;3.69;41.83
29383;BME280;16365;51.598;7.668;2023-03-01T03:32:39;102272.47;;;3.69;41.84
29383;BME280;16365;51.598;7.668;2023-03-01T03:35:07;102268.06;;;3.68;42.70
29383;BME280;16365;51.598;7.668;2023-03-01T03:37:37;102271.63;;;3.68;41.79
29383;BME280;16365;51.598;7.668;2023-03-01T03:40:23;102270.81;;;3.68;41.56
29383;BME280;16365;51.598;7.668;2023-03-01T03:42:49;102269.63;;;3.64;41.81
29383;BME280;16365;51.598;7.668;2023-03-01T03:45:17;102255.31;;;3.61;41.46
29383;BME280;16365;51.598;7.668;2023-03-01T03:47:44;102258.06;;;3.61;42.22
29383;BME280;16365;51.598;7.668;2023-03-01T03:50:13;102251.16;;;3.59;42.13
29383;BME280;16365;51.598;7.668;2023-03-01T03:52:40;102244.84;;;3.58;41.67
29383;BME280;16365;51.598;7.668;2023-03-01T03:55:08;102248.63;;;3.57;42.18
29383;BME280;16365;51.598;7.668;2023-03-01T03:57:37;102239.84;;;3.55;42.15
29383;BME280;16365;51.598;7.668;2023-03-01T04:00:05;102243.66;;;3.54;41.81
29383;BME280;16365;51.598;7.668;2023-03-01T04:02:40;102251.53;;;3.51;42.02
29383;BME280;16365;51.598;7.668;2023-03-01T04:05:08;102250.69;;;3.50;41.91
29383;BME280;16365;51.598;7.668;2023-03-01T04:07:36;102254.53;;;3.49;41.66
29383;BME280;16365;51.598;7.668;2023-03-01T04:10:07;102259.41;;;3.47;42.05
29383;BME280;16365;51.598;7.668;2023-03-01T04:12:34;102262.41;;;3.46;41.97
29383;BME280;16365;51.598;7.668;2023-03-01T04:15:02;102270.63;;;3.46;42.06
29383;BME280;16365;51.598;7.668;2023-03-01T04:17:43;102266.44;;;3.43;41.92
29383;BME280;16365;51.598;7.668;2023-03-01T04:20:16;102269.44;;;3.42;42.54
29383;BME280;16365;51.598;7.668;2023-03-01T04:23:15;102267.19;;;3.39;42.95
29383;BME280;16365;51.598;7.668;2023-03-01T04:26:03;102268.50;;;3.36;42.86
29383;BME280;16365;51.598;7.668;2023-03-01T04:28:38;102265.75;;;3.36;42.71
29383;BME280;16365;51.598;7.668;2023-03-01T04:31:09;102268.50;;;3.36;42.26
29383;BME280;16365;51.598;7.668;2023-03-01T04:33:51;102266.00;;;3.34;42.42
29383;BME280;16365;51.598;7.668;2023-03-01T04:36:20;102265.41;;;3.32;42.22
29383;BME280;16365;51.598;7.668;2023-03-01T04:38:48;102258.50;;;3.30;41.88
29383;BME280;16365;51.598;7.668;2023-03-01T04:41:17;102265.91;;;3.29;42.01
29383;BME280;16365;51.598;7.668;2023-03-01T04:43:44;102263.38;;;3.28;42.31
29383;BME280;16365;51.598;7.668;2023-03-01T04:46:13;102255.66;;;3.25;42.49
29383;BME280;16365;51.598;7.668;2023-03-01T04:48:43;102258.41;;;3.25;42.29
29383;BME280;16365;51.598;7.668;2023-03-01T04:51:10;102254.22;;;3.22;42.33
29383;BME280;16365;51.598;7.668;2023-03-01T04:53:40;102252.31;;;3.23;42.00
29383;BME280;16365;51.598;7.668;2023-03-01T04:56:07;102258.88;;;3.22;42.19
29383;BME280;16365;51.598;7.668;2023-03-01T04:58:34;102258.03;;;3.21;42.30
29383;BME280;16365;51.598;7.668;2023-03-01T05:01:00;102253.63;;;3.20;42.30
29383;BME280;16365;51.598;7.668;2023-03-01T05:03:27;102265.69;;;3.19;42.11
29383;BME280;16365;51.598;7.668;2023-03-01T05:05:58;102260.41;;;3.18;42.58
29383;BME280;16365;51.598;7.668;2023-03-01T05:08:26;102254.09;;;3.17;42.54
29383;BME280;16365;51.598;7.668;2023-03-01T05:10:53;102266.16;;;3.16;42.43
29383;BME280;16365;51.598;7.668;2023-03-01T05:13:21;102256.25;;;3.15;42.52
29383;BME280;16365;51.598;7.668;2023-03-01T05:15:58;102260.31;;;3.13;42.62
29383;BME280;16365;51.598;7.668;2023-03-01T05:18:26;102256.25;;;3.15;42.93
29383;BME280;16365;51.598;7.668;2023-03-01T05:21:06;102252.91;;;3.13;42.61
29383;BME280;16365;51.598;7.668;2023-03-01T05:23:34;102257.56;;;3.13;42.26
29383;BME280;16365;51.598;7.668;2023-03-01T05:26:07;102250.69;;;3.10;42.13
29383;BME280;16365;51.598;7.668;2023-03-01T05:28:52;102251.97;;;3.07;42.28
29383;BME280;16365;51.598;7.668;2023-03-01T05:31:23;102246.75;;;3.06;42.31
29383;BME280;16365;51.598;7.668;2023-03-01T05:33:51;102246.13;;;3.04;42.34
29383;BME280;16365;51.598;7.668;2023-03-01T05:36:23;102245.31;;;3.03;42.46
29383;BME280;16365;51.598;7.668;2023-03-01T05:38:50;102244.22;;;3.04;42.48
29383;BME280;16365;51.598;7.668;2023-03-01T05:41:17;102234.34;;;3.03;42.65
29383;BME280;16365;51.598;7.668;2023-03-01T05:43:44;102241.72;;;3.03;42.67
29383;BME280;16365;51.598;7.668;2023-03-01T05:46:13;102244.72;;;3.01;42.53
29383;BME280;16365;51.598;7.668;2023-03-01T05:48:41;102244.97;;;3.00;42.71
29383;BME280;16365;51.598;7.668;2023-03-01T05:51:08;102248.75;;;2.99;42.77
29383;BME280;16365;51.598;7.668;2023-03-01T05:53:39;102246.28;;;2.97;42.81
29383;BME280;16365;51.598;7.668;2023-03-01T05:56:07;102243.53;;;2.97;42.64
29383;BME280;16365;51.598;7.668;2023-03-01T05:58:34;102248.19;;;2.97;42.89
29383;BME280;16365;51.598;7.668;2023-03-01T06:01:01;102248.19;;;2.97;42.65
29383;BME280;16365;51.598;7.668;2023-03-01T06:03:27;102233.03;;;2.94;42.47
29383;BME280;16365;51.598;7.668;2023-03-01T06:05:56;102242.69;;;2.97;43.61
29383;BME280;16365;51.598;7.668;2023-03-01T06:08:28;102243.53;;;2.97;42.72
29383;BME280;16365;51.598;7.668;2023-03-01T06:10:56;102236.59;;;2.95;42.59
29383;BME280;16365;51.598;7.668;2023-03-01T06:13:24;102244.59;;;2.96;42.73
29383;BME280;16365;51.598;7.668;2023-03-01T06:16:14;102247.56;;;2.95;42.63
29383;BME280;16365;51.598;7.668;2023-03-01T06:18:41;102253.91;;;2.95;42.75
29383;BME280;16365;51.598;7.668;2023-03-01T06:21:08;102250.31;;;2.95;42.78
29383;BME280;16365;51.598;7.668;2023-03-01T06:23:35;102250.09;;;2.96;43.03
29383;BME280;16365;51.598;7.668;2023-03-01T06:26:05;102244.59;;;2.96;42.76
29383;BME280;16365;51.598;7.668;2023-03-01T06:28:32;102245.19;;;2.98;42.66
29383;BME280;16365;51.598;7.668;2023-03-01T06:30:58;102249.00;;;2.97;42.93
29383;BME280;16365;51.598;7.668;2023-03-01T06:33:25;102242.44;;;2.98;42.87
29383;BME280;16365;51.598;7.668;2023-03-01T06:35:56;102241.38;;;2.99;43.42
29383;BME280;16365;51.598;7.668;2023-03-01T06:38:24;102239.50;;;3.00;43.14
29383;BME280;16365;51.598;7.668;2023-03-01T06:40:52;102238.16;;;3.02;42.97
29383;BME280;16365;51.598;7.668;2023-03-01T06:43:21;102237.69;;;3.05;42.93
29383;BME280;16365;51.598;7.668;2023-03-01T06:45:47;102241.84;;;3.08;43.12
29383;BME280;16365;51.598;7.668;2023-03-01T06:48:14;102227.66;;;3.11;43.29
29383;BME280;16365;51.598;7.668;2023-03-01T06:50:40;102230.78;;;3.15;43.03
29383;BME280;16365;51.598;7.668;2023-03-01T06:53:07;102222.66;;;3.20;43.35
29383;BME280;16365;51.598;7.668;2023-03-01T06:55:33;102221.94;;;3.24;43.22
29383;BME280;16365;51.598;7.668;2023-03-01T06:58:01;102222.25;;;3.28;43.29
29383;BME280;16365;51.598;7.668;2023-03-01T07:00:28;102215.59;;;3.35;43.56
29383;BME280;16365;51.598;7.668;2023-03-01T07:02:58;102212.38;;;3.39;43.26
29383;BME280;16365;51.598;7.668;2023-03-01T07:05:25;102224.84;;;3.46;43.43
29383;BME280;16365;51.598;7.668;2023-03-01T07:07:53;102223.28;;;3.50;43.21
29383;BME280;16365;51.598;7.668;2023-03-01T07:10:19;102222.06;;;3.58;43.27
29383;BME280;16365;51.598;7.668;2023-03-01T07:12:46;102225.50;;;3.65;43.06
29383;BME280;16365;51.598;7.668;2023-03-01T07:15:12;102217.38;;;3.70;43.08
29383;BME280;16365;51.598;7.668;2023-03-01T07:17:41;102218.28;;;3.76;43.37
29383;BME280;16365;51.598;7.668;2023-03-01T07:20:08;102220.03;;;3.82;43.07
29383;BME280;16365;51.598;7.668;2023-03-01T07:22:35;102218.25;;;3.88;43.33
29383;BME280;16365;51.598;7.668;2023-03-01T07:25:01;102216.44;;;3.93;43.49
29383;BME280;16365;51.598;7.668;2023-03-01T07:27:28;102218.19;;;3.99;43.13
29383;BME280;16365;51.598;7.668;2023-03-01T07:29:54;102215.25;;;4.06;43.35
29383;BME280;16365;51.598;7.668;2023-03-01T07:32:20;102212.63;;;4.11;43.24
29383;BME280;16365;51.598;7.668;2023-03-01T07:34:47;102212.47;;;4.18;42.98
29383;BME280;16365;51.598;7.668;2023-03-01T07:37:14;102213.13;;;4.25;43.40
29383;BME280;16365;51.598;7.668;2023-03-01T07:39:40;102198.66;;;4.29;43.00
29383;BME280;16365;51.598;7.668;2023-03-01T07:42:08;102200.16;;;4.37;42.78
29383;BME280;16365;51.598;7.668;2023-03-01T07:44:35;102206.31;;;4.44;43.00
29383;BME280;16365;51.598;7.668;2023-03-01T07:47:03;102202.31;;;4.52;43.17
29383;BME280;16365;51.598;7.668;2023-03-01T07:49:30;102208.47;;;4.59;43.19
29383;BME280;16365;51.598;7.668;2023-03-01T07:51:57;102200.63;;;4.68;43.00
29383;BME280;16365;51.598;7.668;2023-03-01T07:54:23;102205.72;;;4.76;42.67
29383;BME280;16365;51.598;7.668;2023-03-01T07:56:50;102211.63;;;4.84;42.65
29383;BME280;16365;51.598;7.668;2023-03-01T07:59:17;102204.28;;;4.90;43.12
29383;BME280;16365;51.598;7.668;2023-03-01T08:01:43;102211.00;;;4.99;42.66
29383;BME280;16365;51.598;7.668;2023-03-01T08:04:10;102212.47;;;5.07;42.81
29383;BME280;16365;51.598;7.668;2023-03-01T08:06:37;102213.13;;;5.14;42.69
29383;BME280;16365;51.598;7.668;2023-03-01T08:09:03;102215.66;;;5.21;42.54
29383;BME280;16365;51.598;7.668;2023-03-01T08:11:29;102208.91;;;5.28;42.60
29383;BME280;16365;51.598;7.668;2023-03-01T08:13:56;102215.84;;;5.36;42.72
29383;BME280;16365;51.598;7.668;2023-03-01T08:16:24;102203.03;;;5.41;42.12
29383;BME280;16365;51.598;7.668;2023-03-01T08:18:51;102200.06;;;5.48;42.10
29383;BME280;16365;51.598;7.668;2023-03-01T08:21:18;102202.88;;;5.53;42.08
29383;BME280;16365;51.598;7.668;2023-03-01T08:23:45;102191.94;;;5.58;42.08
29383;BME280;16365;51.598;7.668;2023-03-01T08:26:18;102195.56;;;5.64;42.79
29383;BME280;16365;51.598;7.668;2023-03-01T08:28:46;102201.94;;;5.70;42.01
29383;BME280;16365;51.598;7.668;2023-03-01T08:33:49;102192.47;;;5.82;42.23
29383;BME280;16365;51.598;7.668;2023-03-01T08:36:24;102187.56;;;5.89;42.02
29383;BME280;16365;51.598;7.668;2023-03-01T08:38:52;102201.16;;;5.96;41.92
29383;BME280;16365;51.598;7.668;2023-03-01T08:41:20;102192.97;;;6.01;41.72
29383;BME280;16365;51.598;7.668;2023-03-01T08:43:48;102201.25;;;6.06;42.25
29383;BME280;16365;51.598;7.668;2023-03-01T08:46:16;102194.16;;;6.10;41.84
29383;BME280;16365;51.598;7.668;2023-03-01T08:48:42;102192.00;;;6.17;41.81
29383;BME280;16365;51.598;7.668;2023-03-01T08:51:11;102194.78;;;6.23;41.53
29383;BME280;16365;51.598;7.668;2023-03-01T08:53:40;102197.59;;;6.28;41.55
29383;BME280;16365;51.598;7.668;2023-03-01T08:56:11;102199.81;;;6.31;41.16
29383;BME280;16365;51.598;7.668;2023-03-01T08:58:38;102190.78;;;6.35;41.41
29383;BME280;16365;51.598;7.668;2023-03-01T09:01:08;102191.63;;;6.41;41.61
29383;BME280;16365;51.598;7.668;2023-03-01T09:03:35;102194.44;;;6.46;41.41
29383;BME280;16365;51.598;7.668;2023-03-01T09:06:07;102194.75;;;6.50;40.98
29383;BME280;16365;51.598;7.668;2023-03-01T09:08:35;102191.19;;;6.54;41.14
29383;BME280;16365;51.598;7.668;2023-03-01T09:11:05;102188.19;;;6.61;41.28
29383;BME280;16365;51.598;7.668;2023-03-01T09:13:32;102187.72;;;6.69;41.09
29383;BME280;16365;51.598;7.668;2023-03-01T09:16:01;102192.44;;;6.74;40.89
29383;BME280;16365;51.598;7.668;2023-03-01T09:18:27;102180.34;;;6.80;41.23
29383;BME280;16365;51.598;7.668;2023-03-01T09:21:01;102187.53;;;6.86;40.59
29383;BME280;16365;51.598;7.668;2023-03-01T09:23:28;102182.91;;;6.91;40.68
29383;BME280;16365;51.598;7.668;2023-03-01T09:25:55;102177.13;;;6.98;40.77
29383;BME280;16365;51.598;7.668;2023-03-01T09:28:21;102172.19;;;7.05;40.66
29383;BME280;16365;51.598;7.668;2023-03-01T09:30:59;102167.28;;;7.12;40.45
29383;BME280;16365;51.598;7.668;2023-03-01T09:33:54;102161.81;;;7.22;40.85
29383;BME280;16365;51.598;7.668;2023-03-01T09:36:23;102148.31;;;7.31;40.72
29383;BME280;16365;51.598;7.668;2023-03-01T09:38:52;102145.88;;;7.40;40.13
29383;BME280;16365;51.598;7.668;2023-03-01T09:41:42;102146.97;;;7.49;39.78
29383;BME280;16365;51.598;7.668;2023-03-01T09:46:45;102154.22;;;7.65;39.74
29383;BME280;16365;51.598;7.668;2023-03-01T09:49:15;102141.78;;;7.73;39.28
29383;BME280;16365;51.598;7.668;2023-03-01T09:51:54;102145.13;;;7.80;39.79
29383;BME280;16365;51.598;7.668;2023-03-01T09:54:21;102149.00;;;7.89;39.79
29383;BME280;16365;51.598;7.668;2023-03-01T09:57:07;102145.13;;;7.95;39.22
29383;BME280;16365;51.598;7.668;2023-03-01T09:59:56;102137.69;;;8.06;39.32
29383;BME280;16365;51.598;7.668;2023-03-01T10:02:39;102135.47;;;8.13;39.25
29383;BME280;16365;51.598;7.668;2023-03-01T10:05:27;102137.66;;;8.21;38.54
29383;BME280;16365;51.598;7.668;2023-03-01T10:10:46;102128.84;;;8.40;38.41
29383;BME280;16365;51.598;7.668;2023-03-01T10:13:21;102128.84;;;8.45;38.19
29383;BME280;16365;51.598;7.668;2023-03-01T10:15:54;102133.81;;;8.53;38.84
29383;BME280;16365;51.598;7.668;2023-03-01T10:18:32;102127.44;;;8.58;38.55
29383;BME280;16365;51.598;7.668;2023-03-01T10:21:02;102122.44;;;8.65;38.56
29383;BME280;16365;51.598;7.668;2023-03-01T10:23:34;102118.56;;;8.71;37.63
29383;BME280;16365;51.598;7.668;2023-03-01T10:26:27;102115.50;;;8.78;36.32
29383;BME280;16365;51.598;7.668;2023-03-01T10:29:05;102122.09;;;8.87;37.30
29383;BME280;16365;51.598;7.668;2023-03-01T10:31:41;102122.34;;;8.95;37.78
29383;BME280;16365;51.598;7.668;2023-03-01T10:34:18;102118.97;;;9.04;37.73
29383;BME280;16365;51.598;7.668;2023-03-01T10:36:48;102129.47;;;9.12;37.12
29383;BME280;16365;51.598;7.668;2023-03-01T10:39:21;102117.25;;;9.18;36.88
29383;BME280;16365;51.598;7.668;2023-03-01T10:42:00;102107.84;;;9.24;36.40
29383;BME280;16365;51.598;7.668;2023-03-01T10:44:43;102108.34;;;9.31;36.14
29383;BME280;16365;51.598;7.668;2023-03-01T10:47:24;102099.44;;;9.39;36.70
29383;BME280;16365;51.598;7.668;2023-03-01T10:50:05;102097.78;;;9.43;36.32
29383;BME280;16365;51.598;7.668;2023-03-01T10:52:36;102096.31;;;9.51;36.85
29383;BME280;16365;51.598;7.668;2023-03-01T10:55:24;102092.16;;;9.53;35.38
29383;BME280;16365;51.598;7.668;2023-03-01T10:58:19;102083.00;;;9.58;35.77
29383;BME280;16365;51.598;7.668;2023-03-01T11:00:52;102089.03;;;9.65;36.83
29383;BME280;16365;51.598;7.668;2023-03-01T11:03:23;102087.34;;;9.69;36.50
29383;BME280;16365;51.598;7.668;2023-03-01T11:05:56;102077.66;;;9.72;36.11
29383;BME280;16365;51.598;7.668;2023-03-01T11:08:41;102079.81;;;9.75;34.89
29383;BME280;16365;51.598;7.668;2023-03-01T11:11:31;102074.25;;;9.80;35.33
29383;BME280;16365;51.598;7.668;2023-03-01T11:14:03;102065.63;;;9.87;36.17
29383;BME280;16365;51.598;7.668;2023-03-01T11:17:05;102066.44;;;9.87;35.33
29383;BME280;16365;51.598;7.668;2023-03-01T11:19:39;102060.25;;;9.95;36.39
29383;BME280;16365;51.598;7.668;2023-03-01T11:22:16;102067.16;;;9.98;35.64
29383;BME280;16365;51.598;7.668;2023-03-01T11:24:47;102066.28;;;10.02;36.04
29383;BME280;16365;51.598;7.668;2023-03-01T11:27:31;102062.09;;;10.05;35.12
29383;BME280;16365;51.598;7.668;2023-03-01T11:30:07;102068.19;;;10.07;35.15
29383;BME280;16365;51.598;7.668;2023-03-01T11:32:53;102067.59;;;10.10;35.41
29383;BME280;16365;51.598;7.668;2023-03-01T11:35:24;102057.31;;;10.16;35.51
29383;BME280;16365;51.598;7.668;2023-03-01T11:38:15;102062.84;;;10.16;34.64
29383;BME280;16365;51.598;7.668;2023-03-01T11:41:15;102070.00;;;10.22;34.51
29383;BME280;16365;51.598;7.668;2023-03-01T11:43:59;102070.28;;;10.25;34.87
29383;BME280;16365;51.598;7.668;2023-03-01T11:47:08;102068.53;;;10.29;34.31
29383;BME280;16365;51.598;7.668;2023-03-01T11:50:00;102068.75;;;10.38;34.70
29383;BME280;16365;51.598;7.668;2023-03-01T11:52:48;102068.41;;;10.45;35.49
29383;BME280;16365;51.598;7.668;2023-03-01T11:55:48;102077.56;;;10.45;34.00
29383;BME280;16365;51.598;7.668;2023-03-01T11:58:52;102069.19;;;10.50;34.45
29383;BME280;16365;51.598;7.668;2023-03-01T12:01:33;102070.75;;;10.57;34.54
29383;BME280;16365;51.598;7.668;2023-03-01T12:04:36;102059.09;;;10.60;34.04
29383;BME280;16365;51.598;7.668;2023-03-01T12:10:20;102058.97;;;10.70;34.50
29383;BME280;16365;51.598;7.668;2023-03-01T12:16:12;102046.38;;;10.77;34.12
29383;BME280;16365;51.598;7.668;2023-03-01T12:19:01;102037.91;;;10.88;34.59
29383;BME280;16365;51.598;7.668;2023-03-01T12:24:35;102015.72;;;10.88;33.72
29383;BME280;16365;51.598;7.668;2023-03-01T12:27:17;102007.34;;;10.93;34.02
29383;BME280;16365;51.598;7.668;2023-03-01T12:40:43;101996.53;;;11.10;33.40
29383;BME280;16365;51.598;7.668;2023-03-01T12:43:27;101995.97;;;11.13;32.74
29383;BME280;16365;51.598;7.668;2023-03-01T12:49:08;101985.00;;;11.22;31.95
29383;BME280;16365;51.598;7.668;2023-03-01T12:51:38;101991.31;;;11.27;32.88
29383;BME280;16365;51.598;7.668;2023-03-01T12:54:14;101974.03;;;11.30;32.33
29383;BME280;16365;51.598;7.668;2023-03-01T12:56:41;101979.22;;;11.37;32.77
29383;BME280;16365;51.598;7.668;2023-03-01T13:01:41;101979.41;;;11.41;32.58
29383;BME280;16365;51.598;7.668;2023-03-01T13:04:17;101970.16;;;11.45;32.95
29383;BME280;16365;51.598;7.668;2023-03-01T13:06:57;101965.66;;;11.49;32.32
29383;BME280;16365;51.598;7.668;2023-03-01T13:12:01;101970.22;;;11.59;32.53
29383;BME280;16365;51.598;7.668;2023-03-01T13:14:36;101951.81;;;11.63;33.04
29383;BME280;16365;51.598;7.668;2023-03-01T13:17:03;101959.25;;;11.68;32.40
29383;BME280;16365;51.598;7.668;2023-03-01T13:19:30;101956.97;;;11.70;32.43
29383;BME280;16365;51.598;7.668;2023-03-01T13:21:59;101956.06;;;11.74;31.75
29383;BME280;16365;51.598;7.668;2023-03-01T13:24:41;101946.91;;;11.74;31.63
29383;BME280;16365;51.598;7.668;2023-03-01T13:27:11;101952.06;;;11.80;32.32
29383;BME280;16365;51.598;7.668;2023-03-01T13:32:28;101951.91;;;11.91;31.62
29383;BME280;16365;51.598;7.668;2023-03-01T13:37:43;101949.75;;;12.01;31.57
29383;BME280;16365;51.598;7.668;2023-03-01T13:42:55;101936.69;;;12.02;30.60
29383;BME280;16365;51.598;7.668;2023-03-01T13:45:38;101930.53;;;12.05;30.73
29383;BME280;16365;51.598;7.668;2023-03-01T13:48:11;101937.41;;;12.07;30.89
29383;BME280;16365;51.598;7.668;2023-03-01T13:50:50;101924.31;;;12.08;31.20
29383;BME280;16365;51.598;7.668;2023-03-01T13:53:19;101927.63;;;12.10;31.37
29383;BME280;16365;51.598;7.668;2023-03-01T13:55:52;101928.47;;;12.11;30.75
29383;BME280;16365;51.598;7.668;2023-03-01T14:01:07;101923.13;;;12.14;29.99
29383;BME280;16365;51.598;7.668;2023-03-01T14:03:46;101931.34;;;12.19;31.37
29383;BME280;16365;51.598;7.668;2023-03-01T14:06:15;101918.28;;;12.20;31.03
29383;BME280;16365;51.598;7.668;2023-03-01T14:12:06;101903.22;;;12.21;31.41
29383;BME280;16365;51.598;7.668;2023-03-01T14:20:16;101892.59;;;12.23;30.26
29383;BME280;16365;51.598;7.668;2023-03-01T14:22:44;101888.19;;;12.22;29.97